sensor_id;sensor_type;location;lat;lon;timestamp;P1;durP1;ratioP1;P2;durP2;ratioP2
74630;SDS011;63138;55.082;38.804;2023-04-06T00:02:06;8.30;;;4.87;;
74630;SDS011;63138;55.082;38.804;2023-04-06T00:04:33;7.50;;;4.93;;
74630;SDS011;63138;55.082;38.804;2023-04-06T00:07:01;7.10;;;4.50;;
74630;SDS011;63138;55.082;38.804;2023-04-06T00:09:30;9.95;;;4.70;;
74630;SDS011;63138;55.082;38.804;2023-04-06T00:11:56;9.50;;;5.10;;
74630;SDS011;63138;55.082;38.804;2023-04-06T00:14:23;6.57;;;4.80;;
74630;SDS011;63138;55.082;38.804;2023-04-06T00:16:51;5.82;;;3.63;;
74630;SDS011;63138;55.082;38.804;2023-04-06T00:19:28;9.45;;;5.22;;
74630;SDS011;63138;55.082;38.804;2023-04-06T00:21:55;6.97;;;4.30;;
74630;SDS011;63138;55.082;38.804;2023-04-06T00:24:22;8.95;;;5.43;;
74630;SDS011;63138;55.082;38.804;2023-04-06T00:26:49;10.40;;;5.50;;
74630;SDS011;63138;55.082;38.804;2023-04-06T00:29:15;7.70;;;5.38;;
74630;SDS011;63138;55.082;38.804;2023-04-06T00:31:41;9.15;;;6.65;;
74630;SDS011;63138;55.082;38.804;2023-04-06T00:34:09;9.93;;;5.30;;
74630;SDS011;63138;55.082;38.804;2023-04-06T00:36:36;7.93;;;4.50;;
74630;SDS011;63138;55.082;38.804;2023-04-06T00:39:02;9.75;;;4.70;;
74630;SDS011;63138;55.082;38.804;2023-04-06T00:41:49;9.57;;;5.32;;
74630;SDS011;63138;55.082;38.804;2023-04-06T00:44:42;7.85;;;5.20;;
74630;SDS011;63138;55.082;38.804;2023-04-06T00:47:28;8.98;;;6.35;;
74630;SDS011;63138;55.082;38.804;2023-04-06T00:49:56;7.63;;;5.30;;
74630;SDS011;63138;55.082;38.804;2023-04-06T00:52:23;7.70;;;4.50;;
74630;SDS011;63138;55.082;38.804;2023-04-06T00:54:49;6.35;;;4.43;;
74630;SDS011;63138;55.082;38.804;2023-04-06T00:57:17;8.10;;;5.55;;
74630;SDS011;63138;55.082;38.804;2023-04-06T00:59:47;8.38;;;5.35;;
74630;SDS011;63138;55.082;38.804;2023-04-06T01:02:13;8.03;;;5.00;;
74630;SDS011;63138;55.082;38.804;2023-04-06T01:04:45;8.88;;;5.45;;
74630;SDS011;63138;55.082;38.804;2023-04-06T01:07:20;8.10;;;5.22;;
74630;SDS011;63138;55.082;38.804;2023-04-06T01:10:01;9.43;;;5.38;;
74630;SDS011;63138;55.082;38.804;2023-04-06T01:12:30;7.05;;;4.40;;
74630;SDS011;63138;55.082;38.804;2023-04-06T01:14:59;6.37;;;4.27;;
74630;SDS011;63138;55.082;38.804;2023-04-06T01:17:28;8.98;;;5.05;;
74630;SDS011;63138;55.082;38.804;2023-04-06T01:19:56;8.20;;;4.40;;
74630;SDS011;63138;55.082;38.804;2023-04-06T01:22:29;6.60;;;4.20;;
74630;SDS011;63138;55.082;38.804;2023-04-06T01:25:19;7.72;;;4.45;;
74630;SDS011;63138;55.082;38.804;2023-04-06T01:28:04;7.07;;;4.80;;
74630;SDS011;63138;55.082;38.804;2023-04-06T01:30:56;7.70;;;4.22;;
74630;SDS011;63138;55.082;38.804;2023-04-06T01:33:39;8.32;;;5.03;;
74630;SDS011;63138;55.082;38.804;2023-04-06T01:36:08;9.02;;;5.00;;
74630;SDS011;63138;55.082;38.804;2023-04-06T01:38:35;8.05;;;4.70;;
74630;SDS011;63138;55.082;38.804;2023-04-06T01:44:20;6.45;;;4.07;;
74630;SDS011;63138;55.082;38.804;2023-04-06T01:46:52;9.32;;;5.15;;
74630;SDS011;63138;55.082;38.804;2023-04-06T01:49:22;6.57;;;4.18;;
74630;SDS011;63138;55.082;38.804;2023-04-06T01:51:53;7.60;;;4.50;;
74630;SDS011;63138;55.082;38.804;2023-04-06T01:54:20;7.37;;;3.90;;
74630;SDS011;63138;55.082;38.804;2023-04-06T01:57:02;10.32;;;5.07;;
74630;SDS011;63138;55.082;38.804;2023-04-06T01:59:33;8.27;;;4.85;;
74630;SDS011;63138;55.082;38.804;2023-04-06T02:02:03;5.97;;;3.92;;
74630;SDS011;63138;55.082;38.804;2023-04-06T02:04:31;7.65;;;4.72;;
74630;SDS011;63138;55.082;38.804;2023-04-06T02:07:06;7.73;;;4.13;;
74630;SDS011;63138;55.082;38.804;2023-04-06T02:09:33;8.30;;;4.72;;
74630;SDS011;63138;55.082;38.804;2023-04-06T02:11:59;9.48;;;4.28;;
74630;SDS011;63138;55.082;38.804;2023-04-06T02:14:27;9.98;;;5.03;;
74630;SDS011;63138;55.082;38.804;2023-04-06T02:16:56;7.68;;;5.28;;
74630;SDS011;63138;55.082;38.804;2023-04-06T02:19:24;8.10;;;5.00;;
74630;SDS011;63138;55.082;38.804;2023-04-06T02:21:50;8.32;;;4.80;;
74630;SDS011;63138;55.082;38.804;2023-04-06T02:24:16;6.65;;;4.70;;
74630;SDS011;63138;55.082;38.804;2023-04-06T02:26:42;6.60;;;4.20;;
74630;SDS011;63138;55.082;38.804;2023-04-06T02:29:09;7.07;;;4.70;;
74630;SDS011;63138;55.082;38.804;2023-04-06T02:31:36;5.63;;;3.78;;
74630;SDS011;63138;55.082;38.804;2023-04-06T02:34:02;9.98;;;4.88;;
74630;SDS011;63138;55.082;38.804;2023-04-06T02:36:30;10.57;;;5.20;;
74630;SDS011;63138;55.082;38.804;2023-04-06T02:38:56;6.00;;;4.25;;
74630;SDS011;63138;55.082;38.804;2023-04-06T02:41:22;7.05;;;4.45;;
74630;SDS011;63138;55.082;38.804;2023-04-06T02:43:49;7.68;;;4.70;;
74630;SDS011;63138;55.082;38.804;2023-04-06T02:46:24;6.37;;;4.13;;
74630;SDS011;63138;55.082;38.804;2023-04-06T02:48:51;8.20;;;3.75;;
74630;SDS011;63138;55.082;38.804;2023-04-06T02:51:17;7.25;;;4.45;;
74630;SDS011;63138;55.082;38.804;2023-04-06T02:54:18;6.43;;;4.45;;
74630;SDS011;63138;55.082;38.804;2023-04-06T02:56:45;9.10;;;4.70;;
74630;SDS011;63138;55.082;38.804;2023-04-06T02:59:12;6.77;;;4.97;;
74630;SDS011;63138;55.082;38.804;2023-04-06T03:01:43;8.45;;;4.07;;
74630;SDS011;63138;55.082;38.804;2023-04-06T03:04:10;8.02;;;4.28;;
74630;SDS011;63138;55.082;38.804;2023-04-06T03:06:36;10.43;;;4.85;;
74630;SDS011;63138;55.082;38.804;2023-04-06T03:09:11;8.98;;;5.32;;
74630;SDS011;63138;55.082;38.804;2023-04-06T03:11:41;9.03;;;4.73;;
74630;SDS011;63138;55.082;38.804;2023-04-06T03:14:12;11.35;;;4.88;;
74630;SDS011;63138;55.082;38.804;2023-04-06T03:16:38;7.43;;;4.68;;
74630;SDS011;63138;55.082;38.804;2023-04-06T03:19:07;8.80;;;4.30;;
74630;SDS011;63138;55.082;38.804;2023-04-06T03:21:35;8.70;;;4.70;;
74630;SDS011;63138;55.082;38.804;2023-04-06T03:24:01;6.53;;;4.20;;
74630;SDS011;63138;55.082;38.804;2023-04-06T03:26:28;6.82;;;4.57;;
74630;SDS011;63138;55.082;38.804;2023-04-06T03:28:59;7.93;;;4.65;;
74630;SDS011;63138;55.082;38.804;2023-04-06T03:31:29;9.03;;;4.70;;
74630;SDS011;63138;55.082;38.804;2023-04-06T03:34:28;8.07;;;3.80;;
74630;SDS011;63138;55.082;38.804;2023-04-06T03:36:59;6.60;;;4.70;;
74630;SDS011;63138;55.082;38.804;2023-04-06T03:39:26;9.32;;;4.32;;
74630;SDS011;63138;55.082;38.804;2023-04-06T03:41:54;8.48;;;4.63;;
74630;SDS011;63138;55.082;38.804;2023-04-06T03:44:35;9.67;;;5.10;;
74630;SDS011;63138;55.082;38.804;2023-04-06T03:47:02;8.73;;;4.90;;
74630;SDS011;63138;55.082;38.804;2023-04-06T03:49:32;8.48;;;4.70;;
74630;SDS011;63138;55.082;38.804;2023-04-06T03:52:00;12.98;;;5.60;;
74630;SDS011;63138;55.082;38.804;2023-04-06T03:54:28;8.77;;;4.88;;
74630;SDS011;63138;55.082;38.804;2023-04-06T03:56:54;5.93;;;4.20;;
74630;SDS011;63138;55.082;38.804;2023-04-06T03:59:25;7.85;;;5.18;;
74630;SDS011;63138;55.082;38.804;2023-04-06T04:04:47;9.77;;;4.53;;
74630;SDS011;63138;55.082;38.804;2023-04-06T04:07:13;5.80;;;4.17;;
74630;SDS011;63138;55.082;38.804;2023-04-06T04:09:38;7.20;;;4.50;;
74630;SDS011;63138;55.082;38.804;2023-04-06T04:12:05;9.43;;;4.90;;
74630;SDS011;63138;55.082;38.804;2023-04-06T04:14:33;10.52;;;5.00;;
74630;SDS011;63138;55.082;38.804;2023-04-06T04:17:29;5.00;;;3.13;;
74630;SDS011;63138;55.082;38.804;2023-04-06T04:19:58;8.20;;;4.53;;
74630;SDS011;63138;55.082;38.804;2023-04-06T04:22:24;8.55;;;4.70;;
74630;SDS011;63138;55.082;38.804;2023-04-06T04:24:54;7.05;;;4.53;;
74630;SDS011;63138;55.082;38.804;2023-04-06T04:27:21;6.67;;;4.10;;
74630;SDS011;63138;55.082;38.804;2023-04-06T04:29:50;7.53;;;4.55;;
74630;SDS011;63138;55.082;38.804;2023-04-06T04:32:16;7.07;;;5.00;;
74630;SDS011;63138;55.082;38.804;2023-04-06T04:34:44;5.97;;;4.10;;
74630;SDS011;63138;55.082;38.804;2023-04-06T04:37:19;7.43;;;4.97;;
74630;SDS011;63138;55.082;38.804;2023-04-06T04:39:50;5.77;;;4.53;;
74630;SDS011;63138;55.082;38.804;2023-04-06T04:42:16;5.60;;;3.95;;
74630;SDS011;63138;55.082;38.804;2023-04-06T04:44:52;7.57;;;5.20;;
74630;SDS011;63138;55.082;38.804;2023-04-06T04:47:32;7.97;;;4.30;;
74630;SDS011;63138;55.082;38.804;2023-04-06T04:49:59;11.23;;;5.00;;
74630;SDS011;63138;55.082;38.804;2023-04-06T04:52:28;7.93;;;5.30;;
74630;SDS011;63138;55.082;38.804;2023-04-06T04:55:09;8.85;;;4.55;;
74630;SDS011;63138;55.082;38.804;2023-04-06T04:57:35;6.38;;;4.25;;
74630;SDS011;63138;55.082;38.804;2023-04-06T05:00:07;8.30;;;4.70;;
74630;SDS011;63138;55.082;38.804;2023-04-06T05:02:37;9.23;;;4.50;;
74630;SDS011;63138;55.082;38.804;2023-04-06T05:05:14;6.27;;;4.37;;
74630;SDS011;63138;55.082;38.804;2023-04-06T05:07:45;7.28;;;3.90;;
74630;SDS011;63138;55.082;38.804;2023-04-06T05:10:22;6.00;;;3.78;;
74630;SDS011;63138;55.082;38.804;2023-04-06T05:12:53;9.40;;;4.28;;
74630;SDS011;63138;55.082;38.804;2023-04-06T05:15:19;6.15;;;3.53;;
74630;SDS011;63138;55.082;38.804;2023-04-06T05:17:50;14.10;;;4.10;;
74630;SDS011;63138;55.082;38.804;2023-04-06T05:20:24;6.90;;;3.50;;
74630;SDS011;63138;55.082;38.804;2023-04-06T05:22:52;5.18;;;3.58;;
74630;SDS011;63138;55.082;38.804;2023-04-06T05:25:18;6.22;;;3.33;;
74630;SDS011;63138;55.082;38.804;2023-04-06T05:27:50;7.30;;;3.78;;
74630;SDS011;63138;55.082;38.804;2023-04-06T05:30:30;5.07;;;3.20;;
74630;SDS011;63138;55.082;38.804;2023-04-06T05:32:59;5.82;;;3.83;;
74630;SDS011;63138;55.082;38.804;2023-04-06T05:35:31;6.45;;;4.03;;
74630;SDS011;63138;55.082;38.804;2023-04-06T05:38:12;5.78;;;3.53;;
74630;SDS011;63138;55.082;38.804;2023-04-06T05:40:38;9.77;;;4.25;;
74630;SDS011;63138;55.082;38.804;2023-04-06T05:43:11;8.10;;;3.60;;
74630;SDS011;63138;55.082;38.804;2023-04-06T05:46:04;7.55;;;3.78;;
74630;SDS011;63138;55.082;38.804;2023-04-06T05:48:30;6.68;;;4.18;;
74630;SDS011;63138;55.082;38.804;2023-04-06T05:50:57;7.18;;;4.78;;
74630;SDS011;63138;55.082;38.804;2023-04-06T05:53:36;7.43;;;5.65;;
74630;SDS011;63138;55.082;38.804;2023-04-06T05:56:03;6.47;;;5.87;;
74630;SDS011;63138;55.082;38.804;2023-04-06T05:58:32;6.60;;;5.80;;
74630;SDS011;63138;55.082;38.804;2023-04-06T06:01:00;6.35;;;5.50;;
74630;SDS011;63138;55.082;38.804;2023-04-06T06:03:34;7.82;;;6.00;;
74630;SDS011;63138;55.082;38.804;2023-04-06T06:06:01;6.78;;;6.07;;
74630;SDS011;63138;55.082;38.804;2023-04-06T06:08:35;6.27;;;5.20;;
74630;SDS011;63138;55.082;38.804;2023-04-06T06:11:05;6.40;;;5.72;;
74630;SDS011;63138;55.082;38.804;2023-04-06T06:13:50;6.43;;;5.70;;
74630;SDS011;63138;55.082;38.804;2023-04-06T06:16:17;5.97;;;5.38;;
74630;SDS011;63138;55.082;38.804;2023-04-06T06:19:06;6.18;;;5.15;;
74630;SDS011;63138;55.082;38.804;2023-04-06T06:24:47;9.85;;;6.00;;
74630;SDS011;63138;55.082;38.804;2023-04-06T06:27:19;12.63;;;6.55;;
74630;SDS011;63138;55.082;38.804;2023-04-06T06:29:46;10.05;;;6.55;;
74630;SDS011;63138;55.082;38.804;2023-04-06T06:35:24;6.00;;;5.03;;
74630;SDS011;63138;55.082;38.804;2023-04-06T06:41:00;7.85;;;5.57;;
74630;SDS011;63138;55.082;38.804;2023-04-06T06:43:32;10.20;;;5.60;;
74630;SDS011;63138;55.082;38.804;2023-04-06T06:46:02;11.63;;;6.13;;
74630;SDS011;63138;55.082;38.804;2023-04-06T06:51:18;8.98;;;5.80;;
74630;SDS011;63138;55.082;38.804;2023-04-06T06:54:21;9.02;;;5.70;;
74630;SDS011;63138;55.082;38.804;2023-04-06T06:56:47;10.20;;;4.97;;
74630;SDS011;63138;55.082;38.804;2023-04-06T06:59:14;6.97;;;5.00;;
74630;SDS011;63138;55.082;38.804;2023-04-06T07:04:26;9.23;;;5.88;;
74630;SDS011;63138;55.082;38.804;2023-04-06T07:09:38;6.80;;;4.80;;
74630;SDS011;63138;55.082;38.804;2023-04-06T07:12:05;11.57;;;5.50;;
74630;SDS011;63138;55.082;38.804;2023-04-06T07:14:32;10.35;;;5.40;;
74630;SDS011;63138;55.082;38.804;2023-04-06T07:16:57;8.93;;;5.82;;
74630;SDS011;63138;55.082;38.804;2023-04-06T07:19:24;11.77;;;6.35;;
74630;SDS011;63138;55.082;38.804;2023-04-06T07:21:50;19.55;;;10.15;;
74630;SDS011;63138;55.082;38.804;2023-04-06T07:24:16;16.87;;;7.43;;
74630;SDS011;63138;55.082;38.804;2023-04-06T07:26:43;15.15;;;6.50;;
74630;SDS011;63138;55.082;38.804;2023-04-06T07:29:09;9.73;;;6.50;;
74630;SDS011;63138;55.082;38.804;2023-04-06T07:31:35;12.70;;;5.93;;
74630;SDS011;63138;55.082;38.804;2023-04-06T07:34:02;9.87;;;5.50;;
74630;SDS011;63138;55.082;38.804;2023-04-06T07:36:29;9.43;;;5.60;;
74630;SDS011;63138;55.082;38.804;2023-04-06T07:38:55;17.65;;;9.77;;
74630;SDS011;63138;55.082;38.804;2023-04-06T07:41:24;13.07;;;8.00;;
74630;SDS011;63138;55.082;38.804;2023-04-06T07:44:14;14.45;;;7.50;;
74630;SDS011;63138;55.082;38.804;2023-04-06T07:46:42;21.13;;;8.70;;
74630;SDS011;63138;55.082;38.804;2023-04-06T07:49:14;17.40;;;9.18;;
74630;SDS011;63138;55.082;38.804;2023-04-06T07:51:41;10.60;;;6.13;;
74630;SDS011;63138;55.082;38.804;2023-04-06T07:54:07;11.43;;;6.50;;
74630;SDS011;63138;55.082;38.804;2023-04-06T07:56:33;10.20;;;5.30;;
74630;SDS011;63138;55.082;38.804;2023-04-06T07:58:59;11.13;;;5.97;;
74630;SDS011;63138;55.082;38.804;2023-04-06T08:01:27;5.57;;;4.93;;
74630;SDS011;63138;55.082;38.804;2023-04-06T08:03:54;5.70;;;4.50;;
74630;SDS011;63138;55.082;38.804;2023-04-06T08:06:22;10.90;;;5.80;;
74630;SDS011;63138;55.082;38.804;2023-04-06T08:08:49;9.60;;;5.10;;
74630;SDS011;63138;55.082;38.804;2023-04-06T08:11:15;9.10;;;4.40;;
74630;SDS011;63138;55.082;38.804;2023-04-06T08:13:41;7.30;;;4.70;;
74630;SDS011;63138;55.082;38.804;2023-04-06T08:16:07;7.60;;;4.95;;
74630;SDS011;63138;55.082;38.804;2023-04-06T08:18:34;14.90;;;6.20;;
74630;SDS011;63138;55.082;38.804;2023-04-06T08:21:00;10.43;;;5.00;;
74630;SDS011;63138;55.082;38.804;2023-04-06T08:26:23;7.53;;;5.65;;
74630;SDS011;63138;55.082;38.804;2023-04-06T08:28:51;15.02;;;7.20;;
74630;SDS011;63138;55.082;38.804;2023-04-06T08:31:17;18.07;;;8.97;;
74630;SDS011;63138;55.082;38.804;2023-04-06T08:33:43;13.00;;;7.20;;
74630;SDS011;63138;55.082;38.804;2023-04-06T08:36:14;28.02;;;8.80;;
74630;SDS011;63138;55.082;38.804;2023-04-06T08:38:48;12.88;;;6.40;;
74630;SDS011;63138;55.082;38.804;2023-04-06T08:41:16;14.45;;;6.75;;
74630;SDS011;63138;55.082;38.804;2023-04-06T08:43:47;10.73;;;5.53;;
74630;SDS011;63138;55.082;38.804;2023-04-06T08:46:14;10.27;;;5.93;;
74630;SDS011;63138;55.082;38.804;2023-04-06T08:48:42;22.67;;;11.05;;
74630;SDS011;63138;55.082;38.804;2023-04-06T08:51:09;18.65;;;9.27;;
74630;SDS011;63138;55.082;38.804;2023-04-06T08:54:03;15.52;;;7.63;;
74630;SDS011;63138;55.082;38.804;2023-04-06T08:56:30;9.57;;;4.70;;
74630;SDS011;63138;55.082;38.804;2023-04-06T08:59:21;12.48;;;5.10;;
74630;SDS011;63138;55.082;38.804;2023-04-06T09:01:47;10.13;;;6.10;;
74630;SDS011;63138;55.082;38.804;2023-04-06T09:04:14;13.27;;;6.28;;
74630;SDS011;63138;55.082;38.804;2023-04-06T09:07:00;10.50;;;5.70;;
74630;SDS011;63138;55.082;38.804;2023-04-06T09:09:31;11.87;;;5.13;;
74630;SDS011;63138;55.082;38.804;2023-04-06T09:11:57;13.43;;;4.82;;
74630;SDS011;63138;55.082;38.804;2023-04-06T09:14:34;9.57;;;4.78;;
74630;SDS011;63138;55.082;38.804;2023-04-06T09:17:05;9.32;;;5.05;;
74630;SDS011;63138;55.082;38.804;2023-04-06T09:19:45;23.33;;;10.23;;
74630;SDS011;63138;55.082;38.804;2023-04-06T09:22:15;12.80;;;5.33;;
74630;SDS011;63138;55.082;38.804;2023-04-06T09:25:17;13.32;;;7.20;;
74630;SDS011;63138;55.082;38.804;2023-04-06T09:27:48;12.30;;;5.93;;
74630;SDS011;63138;55.082;38.804;2023-04-06T09:30:26;9.07;;;4.80;;
74630;SDS011;63138;55.082;38.804;2023-04-06T09:32:55;8.45;;;5.00;;
74630;SDS011;63138;55.082;38.804;2023-04-06T09:35:23;10.13;;;5.30;;
74630;SDS011;63138;55.082;38.804;2023-04-06T09:37:52;12.15;;;4.38;;
74630;SDS011;63138;55.082;38.804;2023-04-06T09:40:19;14.20;;;6.93;;
74630;SDS011;63138;55.082;38.804;2023-04-06T09:42:46;12.77;;;5.68;;
74630;SDS011;63138;55.082;38.804;2023-04-06T09:45:14;32.05;;;12.35;;
74630;SDS011;63138;55.082;38.804;2023-04-06T09:47:45;8.47;;;4.90;;
74630;SDS011;63138;55.082;38.804;2023-04-06T09:50:12;12.32;;;4.82;;
74630;SDS011;63138;55.082;38.804;2023-04-06T09:53:18;13.90;;;5.45;;
74630;SDS011;63138;55.082;38.804;2023-04-06T09:55:48;9.15;;;5.18;;
74630;SDS011;63138;55.082;38.804;2023-04-06T09:58:25;11.07;;;5.00;;
74630;SDS011;63138;55.082;38.804;2023-04-06T10:06:54;10.85;;;4.25;;
74630;SDS011;63138;55.082;38.804;2023-04-06T10:09:22;9.52;;;4.43;;
74630;SDS011;63138;55.082;38.804;2023-04-06T10:11:53;13.82;;;6.05;;
74630;SDS011;63138;55.082;38.804;2023-04-06T10:14:25;8.00;;;4.50;;
74630;SDS011;63138;55.082;38.804;2023-04-06T10:17:10;8.90;;;3.65;;
74630;SDS011;63138;55.082;38.804;2023-04-06T10:25:32;11.82;;;3.90;;
74630;SDS011;63138;55.082;38.804;2023-04-06T10:28:23;9.43;;;4.10;;
74630;SDS011;63138;55.082;38.804;2023-04-06T10:30:56;8.02;;;3.50;;
74630;SDS011;63138;55.082;38.804;2023-04-06T10:33:23;9.73;;;4.43;;
74630;SDS011;63138;55.082;38.804;2023-04-06T10:35:50;8.48;;;3.55;;
74630;SDS011;63138;55.082;38.804;2023-04-06T10:38:37;6.15;;;3.92;;
74630;SDS011;63138;55.082;38.804;2023-04-06T10:41:09;11.37;;;4.30;;
74630;SDS011;63138;55.082;38.804;2023-04-06T10:43:37;6.55;;;3.70;;
74630;SDS011;63138;55.082;38.804;2023-04-06T10:46:04;7.80;;;4.15;;
74630;SDS011;63138;55.082;38.804;2023-04-06T10:51:29;8.02;;;3.53;;
74630;SDS011;63138;55.082;38.804;2023-04-06T10:53:56;6.67;;;3.13;;
74630;SDS011;63138;55.082;38.804;2023-04-06T10:56:24;7.03;;;3.78;;
74630;SDS011;63138;55.082;38.804;2023-04-06T11:01:47;8.13;;;3.67;;
74630;SDS011;63138;55.082;38.804;2023-04-06T11:04:17;7.25;;;4.32;;
74630;SDS011;63138;55.082;38.804;2023-04-06T11:06:46;8.00;;;3.47;;
74630;SDS011;63138;55.082;38.804;2023-04-06T11:09:29;6.57;;;3.10;;
74630;SDS011;63138;55.082;38.804;2023-04-06T11:12:05;7.03;;;3.40;;
74630;SDS011;63138;55.082;38.804;2023-04-06T11:14:32;9.20;;;3.40;;
74630;SDS011;63138;55.082;38.804;2023-04-06T11:17:44;8.52;;;3.63;;
74630;SDS011;63138;55.082;38.804;2023-04-06T11:20:11;8.13;;;4.07;;
74630;SDS011;63138;55.082;38.804;2023-04-06T11:22:47;7.85;;;3.45;;
74630;SDS011;63138;55.082;38.804;2023-04-06T11:25:17;5.45;;;3.22;;
74630;SDS011;63138;55.082;38.804;2023-04-06T11:27:46;6.68;;;2.97;;
74630;SDS011;63138;55.082;38.804;2023-04-06T11:30:17;5.90;;;3.35;;
74630;SDS011;63138;55.082;38.804;2023-04-06T11:32:47;6.90;;;3.87;;
74630;SDS011;63138;55.082;38.804;2023-04-06T11:35:57;10.05;;;3.88;;
74630;SDS011;63138;55.082;38.804;2023-04-06T11:38:23;11.75;;;3.63;;
74630;SDS011;63138;55.082;38.804;2023-04-06T11:40:53;5.45;;;3.30;;
74630;SDS011;63138;55.082;38.804;2023-04-06T11:43:25;5.57;;;3.30;;
74630;SDS011;63138;55.082;38.804;2023-04-06T11:46:17;5.77;;;2.77;;
74630;SDS011;63138;55.082;38.804;2023-04-06T11:48:47;7.82;;;3.10;;
74630;SDS011;63138;55.082;38.804;2023-04-06T11:51:21;9.25;;;4.57;;
74630;SDS011;63138;55.082;38.804;2023-04-06T11:53:51;8.55;;;3.13;;
74630;SDS011;63138;55.082;38.804;2023-04-06T11:56:36;9.15;;;3.67;;
74630;SDS011;63138;55.082;38.804;2023-04-06T11:59:04;14.17;;;3.87;;
74630;SDS011;63138;55.082;38.804;2023-04-06T12:01:48;6.43;;;2.70;;
74630;SDS011;63138;55.082;38.804;2023-04-06T12:04:41;5.05;;;3.15;;
74630;SDS011;63138;55.082;38.804;2023-04-06T12:07:07;6.75;;;4.00;;
74630;SDS011;63138;55.082;38.804;2023-04-06T12:09:33;6.38;;;3.38;;
74630;SDS011;63138;55.082;38.804;2023-04-06T12:12:01;5.87;;;3.63;;
74630;SDS011;63138;55.082;38.804;2023-04-06T12:14:27;6.97;;;3.47;;
74630;SDS011;63138;55.082;38.804;2023-04-06T12:16:53;7.22;;;3.72;;
74630;SDS011;63138;55.082;38.804;2023-04-06T12:19:19;7.72;;;3.60;;
74630;SDS011;63138;55.082;38.804;2023-04-06T12:21:45;9.18;;;3.28;;
74630;SDS011;63138;55.082;38.804;2023-04-06T12:24:13;8.97;;;3.13;;
74630;SDS011;63138;55.082;38.804;2023-04-06T12:26:45;8.02;;;3.35;;
74630;SDS011;63138;55.082;38.804;2023-04-06T12:29:14;5.65;;;3.10;;
74630;SDS011;63138;55.082;38.804;2023-04-06T12:31:41;6.75;;;3.20;;
74630;SDS011;63138;55.082;38.804;2023-04-06T12:34:16;4.22;;;3.15;;
74630;SDS011;63138;55.082;38.804;2023-04-06T12:36:42;8.17;;;3.77;;
74630;SDS011;63138;55.082;38.804;2023-04-06T12:42:11;6.60;;;3.50;;
74630;SDS011;63138;55.082;38.804;2023-04-06T12:44:38;8.82;;;3.60;;
74630;SDS011;63138;55.082;38.804;2023-04-06T12:47:05;6.95;;;2.65;;
74630;SDS011;63138;55.082;38.804;2023-04-06T12:49:32;8.97;;;3.63;;
74630;SDS011;63138;55.082;38.804;2023-04-06T12:51:59;5.28;;;3.15;;
74630;SDS011;63138;55.082;38.804;2023-04-06T12:54:27;5.32;;;2.90;;
74630;SDS011;63138;55.082;38.804;2023-04-06T12:59:47;5.22;;;2.95;;
74630;SDS011;63138;55.082;38.804;2023-04-06T13:02:13;6.67;;;3.30;;
74630;SDS011;63138;55.082;38.804;2023-04-06T13:04:40;6.15;;;2.72;;
74630;SDS011;63138;55.082;38.804;2023-04-06T13:07:07;9.82;;;4.03;;
74630;SDS011;63138;55.082;38.804;2023-04-06T13:09:32;6.03;;;3.15;;
74630;SDS011;63138;55.082;38.804;2023-04-06T13:11:59;7.60;;;3.73;;
74630;SDS011;63138;55.082;38.804;2023-04-06T13:14:26;5.38;;;3.60;;
74630;SDS011;63138;55.082;38.804;2023-04-06T13:16:53;10.68;;;3.80;;
74630;SDS011;63138;55.082;38.804;2023-04-06T13:19:19;7.68;;;2.92;;
74630;SDS011;63138;55.082;38.804;2023-04-06T13:21:47;6.00;;;3.17;;
74630;SDS011;63138;55.082;38.804;2023-04-06T13:24:13;4.40;;;3.13;;
74630;SDS011;63138;55.082;38.804;2023-04-06T13:29:32;5.38;;;2.80;;
74630;SDS011;63138;55.082;38.804;2023-04-06T13:31:59;6.20;;;2.55;;
74630;SDS011;63138;55.082;38.804;2023-04-06T13:34:48;5.60;;;2.70;;
74630;SDS011;63138;55.082;38.804;2023-04-06T13:37:39;3.80;;;3.03;;
74630;SDS011;63138;55.082;38.804;2023-04-06T13:40:11;6.47;;;3.50;;
74630;SDS011;63138;55.082;38.804;2023-04-06T13:42:41;8.80;;;3.75;;
74630;SDS011;63138;55.082;38.804;2023-04-06T13:45:32;8.30;;;3.40;;
74630;SDS011;63138;55.082;38.804;2023-04-06T13:51:36;6.50;;;3.20;;
74630;SDS011;63138;55.082;38.804;2023-04-06T13:54:02;15.02;;;9.68;;
74630;SDS011;63138;55.082;38.804;2023-04-06T13:59:14;8.70;;;6.18;;
74630;SDS011;63138;55.082;38.804;2023-04-06T14:01:41;9.23;;;4.57;;
74630;SDS011;63138;55.082;38.804;2023-04-06T14:04:51;6.60;;;3.47;;
74630;SDS011;63138;55.082;38.804;2023-04-06T14:07:37;7.65;;;4.03;;
74630;SDS011;63138;55.082;38.804;2023-04-06T14:10:07;5.47;;;3.60;;
74630;SDS011;63138;55.082;38.804;2023-04-06T14:12:43;5.32;;;3.13;;
74630;SDS011;63138;55.082;38.804;2023-04-06T14:18:26;9.20;;;4.15;;
74630;SDS011;63138;55.082;38.804;2023-04-06T14:20:56;5.55;;;3.47;;
74630;SDS011;63138;55.082;38.804;2023-04-06T14:23:24;6.30;;;4.88;;
74630;SDS011;63138;55.082;38.804;2023-04-06T14:28:42;7.33;;;3.47;;
74630;SDS011;63138;55.082;38.804;2023-04-06T14:31:10;8.35;;;5.25;;
74630;SDS011;63138;55.082;38.804;2023-04-06T14:36:24;5.13;;;3.83;;
74630;SDS011;63138;55.082;38.804;2023-04-06T14:39:21;9.60;;;2.90;;
74630;SDS011;63138;55.082;38.804;2023-04-06T14:45:02;6.32;;;3.75;;
74630;SDS011;63138;55.082;38.804;2023-04-06T14:47:29;7.65;;;3.80;;
74630;SDS011;63138;55.082;38.804;2023-04-06T14:49:55;6.18;;;3.50;;
74630;SDS011;63138;55.082;38.804;2023-04-06T14:52:25;4.88;;;3.60;;
74630;SDS011;63138;55.082;38.804;2023-04-06T14:54:52;8.60;;;3.10;;
74630;SDS011;63138;55.082;38.804;2023-04-06T14:57:46;9.95;;;3.10;;
74630;SDS011;63138;55.082;38.804;2023-04-06T15:00:15;8.77;;;3.63;;
74630;SDS011;63138;55.082;38.804;2023-04-06T15:02:42;9.10;;;3.72;;
74630;SDS011;63138;55.082;38.804;2023-04-06T15:05:36;10.02;;;3.13;;
74630;SDS011;63138;55.082;38.804;2023-04-06T15:08:03;7.57;;;3.40;;
74630;SDS011;63138;55.082;38.804;2023-04-06T15:10:31;4.97;;;2.83;;
74630;SDS011;63138;55.082;38.804;2023-04-06T15:13:23;6.47;;;3.55;;
74630;SDS011;63138;55.082;38.804;2023-04-06T15:16:08;5.07;;;2.80;;
74630;SDS011;63138;55.082;38.804;2023-04-06T15:18:34;5.97;;;3.40;;
74630;SDS011;63138;55.082;38.804;2023-04-06T15:21:01;7.10;;;2.70;;
74630;SDS011;63138;55.082;38.804;2023-04-06T15:23:29;5.35;;;2.90;;
74630;SDS011;63138;55.082;38.804;2023-04-06T15:25:57;12.38;;;3.10;;
74630;SDS011;63138;55.082;38.804;2023-04-06T15:28:23;8.63;;;3.00;;
74630;SDS011;63138;55.082;38.804;2023-04-06T15:33:42;5.83;;;2.90;;
74630;SDS011;63138;55.082;38.804;2023-04-06T15:39:34;6.75;;;3.05;;
74630;SDS011;63138;55.082;38.804;2023-04-06T15:42:04;8.10;;;2.95;;
74630;SDS011;63138;55.082;38.804;2023-04-06T15:44:30;4.28;;;2.60;;
74630;SDS011;63138;55.082;38.804;2023-04-06T15:46:57;3.53;;;2.13;;
74630;SDS011;63138;55.082;38.804;2023-04-06T15:49:48;6.00;;;2.33;;
74630;SDS011;63138;55.082;38.804;2023-04-06T15:55:07;6.43;;;2.20;;
74630;SDS011;63138;55.082;38.804;2023-04-06T15:57:35;4.05;;;2.20;;
74630;SDS011;63138;55.082;38.804;2023-04-06T16:00:02;3.43;;;1.77;;
74630;SDS011;63138;55.082;38.804;2023-04-06T16:02:35;5.35;;;2.30;;
74630;SDS011;63138;55.082;38.804;2023-04-06T16:05:02;5.45;;;2.30;;
74630;SDS011;63138;55.082;38.804;2023-04-06T16:07:29;7.68;;;2.28;;
74630;SDS011;63138;55.082;38.804;2023-04-06T16:13:16;3.70;;;1.83;;
74630;SDS011;63138;55.082;38.804;2023-04-06T16:15:42;5.03;;;2.30;;
74630;SDS011;63138;55.082;38.804;2023-04-06T16:24:45;5.78;;;2.65;;
74630;SDS011;63138;55.082;38.804;2023-04-06T16:27:17;3.87;;;2.20;;